Time;durP1;ratioP1;P1;durP2;ratioP2;P2;SDS_P1;SDS_P2;PMS_P1;PMS_P2;Temp;Humidity;BMP_temperature;BMP_pressure;BME280_temperature;BME280_humidity;BME280_pressure;Samples;Min_cycle;Max_cycle;Signal;HPM_P1;HPM_P2
2021/12/23 00:00:13;;;;;;;42.90;24.77;;;0.50;96.00;;;;;;4965850;28;20084;-82
2021/12/23 00:02:39;;;;;;;43.97;24.67;;;0.50;96.00;;;;;;4999606;28;20023;-81
2021/12/23 00:05:07;;;;;;;42.63;26.30;;;0.50;95.60;;;;;;5000009;28;20054;-82
2021/12/23 00:07:33;;;;;;;53.47;29.47;;;0.60;95.70;;;;;;4983143;28;20542;-82
2021/12/23 00:12:30;;;;;;;39.77;23.73;;;0.70;95.80;;;;;;4997428;28;20034;-81
2021/12/23 00:14:56;;;;;;;41.33;23.23;;;0.60;94.90;;;;;;4997307;28;20030;-83
2021/12/23 00:17:55;;;;;;;42.77;24.83;;;0.40;94.30;;;;;;4981205;28;20030;-80
2021/12/23 00:25:36;;;;;;;40.70;22.80;;;0.40;95.40;;;;;;4998476;28;20398;-81
2021/12/23 00:28:03;;;;;;;44.87;25.10;;;0.30;95.00;;;;;;4985319;28;20030;-82
2021/12/23 00:30:29;;;;;;;44.17;26.07;;;0.20;94.90;;;;;;5004628;28;20102;-81
2021/12/23 00:32:55;;;;;;;47.37;26.70;;;0.30;95.70;;;;;;4984657;28;20038;-82
2021/12/23 00:35:21;;;;;;;49.80;27.57;;;0.30;96.40;;;;;;4999797;28;20089;-81
2021/12/23 00:37:50;;;;;;;43.90;24.83;;;0.40;96.70;;;;;;4984854;28;20038;-79
2021/12/23 00:40:17;;;;;;;42.23;23.90;;;0.50;96.40;;;;;;4998308;28;20053;-81
2021/12/23 00:42:43;;;;;;;44.13;25.13;;;0.50;96.00;;;;;;4997469;28;20029;-81
2021/12/23 00:45:09;;;;;;;41.13;23.33;;;0.40;95.40;;;;;;4996582;28;20026;-79
2021/12/23 00:47:35;;;;;;;43.80;23.83;;;0.30;95.20;;;;;;4997573;28;20084;-80
2021/12/23 00:50:01;;;;;;;38.17;23.27;;;0.20;95.20;;;;;;4996536;28;20113;-80
2021/12/23 00:52:34;;;;;;;39.13;23.50;;;0.20;95.30;;;;;;4997159;28;20450;-81
2021/12/23 00:55:01;;;;;;;42.27;23.67;;;0.20;95.40;;;;;;4996563;28;20106;-81
2021/12/23 00:57:28;;;;;;;43.40;23.73;;;0.20;95.10;;;;;;4996060;28;20029;-83
2021/12/23 00:59:56;;;;;;;40.93;24.53;;;0.20;95.10;;;;;;4995884;28;20041;-82
2021/12/23 01:02:25;;;;;;;45.73;24.00;;;0.20;95.30;;;;;;4996325;28;20113;-79
2021/12/23 01:04:51;;;;;;;43.97;24.67;;;0.30;95.50;;;;;;4997837;28;20026;-80
2021/12/23 01:07:17;;;;;;;41.03;23.57;;;0.40;95.30;;;;;;4997590;28;20050;-80
2021/12/23 01:09:42;;;;;;;42.87;23.87;;;0.40;94.90;;;;;;4979566;28;20534;-82
2021/12/23 01:12:11;;;;;;;43.17;24.60;;;0.30;94.50;;;;;;4963408;28;20030;-82
2021/12/23 01:14:55;;;;;;;45.20;23.70;;;0.20;94.50;;;;;;4997125;28;20057;-82
2021/12/23 01:19:53;;;;;;;43.70;24.63;;;0.10;94.90;;;;;;4995578;28;20125;-82
2021/12/23 01:22:20;;;;;;;42.27;24.37;;;0.00;95.00;;;;;;4964737;28;20125;-82
2021/12/23 01:24:46;;;;;;;43.30;25.63;;;0.00;95.20;;;;;;4995235;28;20504;-81
2021/12/23 01:27:12;;;;;;;39.40;23.20;;;0.00;95.50;;;;;;4979623;28;20061;-81
2021/12/23 01:29:38;;;;;;;49.77;24.73;;;0.00;95.50;;;;;;4977169;28;20050;-76
2021/12/23 01:32:06;;;;;;;39.40;24.20;;;0.10;95.40;;;;;;4993604;28;20121;-77
2021/12/23 01:34:33;;;;;;;44.33;24.20;;;0.00;95.10;;;;;;4993848;28;20523;-77
2021/12/23 01:37:00;;;;;;;40.67;23.70;;;-0.10;95.50;;;;;;4994972;28;20053;-78
2021/12/23 01:39:26;;;;;;;41.93;23.67;;;-0.10;96.20;;;;;;4978014;28;20026;-76
2021/12/23 01:41:52;;;;;;;45.70;23.33;;;-0.10;95.90;;;;;;4961274;28;20501;-77
2021/12/23 01:44:18;;;;;;;41.00;23.83;;;-0.10;95.90;;;;;;4993313;28;20030;-76
2021/12/23 01:46:44;;;;;;;44.43;25.20;;;0.00;96.10;;;;;;4993715;28;20022;-78
2021/12/23 01:49:10;;;;;;;42.47;24.50;;;0.00;96.40;;;;;;4994784;28;20030;-78
2021/12/23 01:51:36;;;;;;;44.10;25.47;;;0.20;96.90;;;;;;4976831;28;20269;-77
2021/12/23 01:54:02;;;;;;;40.50;23.80;;;0.40;97.90;;;;;;4993570;28;20471;-78
2021/12/23 01:56:28;;;;;;;40.17;24.33;;;0.70;98.50;;;;;;4993321;28;20062;-77
2021/12/23 01:58:54;;;;;;;40.30;23.57;;;0.80;98.40;;;;;;4992993;28;20061;-80
2021/12/23 02:01:20;;;;;;;42.47;24.70;;;0.90;98.20;;;;;;4976914;28;20027;-77
2021/12/23 02:03:46;;;;;;;40.80;23.37;;;1.00;97.80;;;;;;4992806;28;20081;-78
2021/12/23 02:06:11;;;;;;;41.40;24.13;;;1.00;96.40;;;;;;4976581;28;20097;-77
2021/12/23 02:08:39;;;;;;;42.77;23.90;;;0.90;95.10;;;;;;4993651;28;20026;-77
2021/12/23 02:11:07;;;;;;;38.17;23.13;;;0.70;95.00;;;;;;4977342;28;20519;-77
2021/12/23 02:13:34;;;;;;;43.47;23.77;;;0.80;95.90;;;;;;4992687;28;20041;-77
2021/12/23 02:16:02;;;;;;;38.00;23.40;;;0.70;96.10;;;;;;4961064;28;20050;-77
2021/12/23 02:18:28;;;;;;;41.27;21.97;;;0.90;97.10;;;;;;4961345;28;20188;-77
2021/12/23 02:20:55;;;;;;;42.13;23.73;;;1.10;97.40;;;;;;4978401;28;20033;-76
2021/12/23 02:23:22;;;;;;;38.47;22.13;;;1.30;97.20;;;;;;4993404;28;20023;-77
2021/12/23 02:25:48;;;;;;;40.00;23.27;;;1.40;96.90;;;;;;4994304;28;20030;-77
2021/12/23 02:28:19;;;;;;;35.60;22.30;;;1.40;96.60;;;;;;4993588;28;20435;-77
2021/12/23 02:30:46;;;;;;;42.83;22.90;;;1.40;95.20;;;;;;4992491;28;20033;-77
2021/12/23 02:33:13;;;;;;;38.90;22.80;;;1.30;94.80;;;;;;4992526;28;20026;-77
2021/12/23 02:35:39;;;;;;;43.67;23.50;;;1.10;93.70;;;;;;4992354;28;20475;-78
2021/12/23 02:38:05;;;;;;;36.07;22.63;;;0.90;93.40;;;;;;4993767;28;20067;-78
2021/12/23 02:40:36;;;;;;;36.57;22.50;;;0.90;94.60;;;;;;4976454;28;20034;-77
2021/12/23 02:43:22;;;;;;;37.53;22.10;;;0.80;94.70;;;;;;4992764;28;20022;-80
2021/12/23 02:45:50;;;;;;;37.43;21.87;;;0.90;95.50;;;;;;4994224;28;20069;-78
2021/12/23 02:48:25;;;;;;;37.87;22.20;;;0.90;96.20;;;;;;4976475;28;20125;-77
2021/12/23 02:50:53;;;;;;;36.77;21.83;;;0.90;96.10;;;;;;4993125;28;20073;-78
2021/12/23 02:53:19;;;;;;;38.70;22.70;;;0.90;95.40;;;;;;4976092;28;20055;-79
2021/12/23 02:55:46;;;;;;;41.60;23.10;;;0.80;95.20;;;;;;4992942;28;20084;-77
2021/12/23 02:58:12;;;;;;;38.97;21.67;;;0.60;94.80;;;;;;4993135;28;20320;-77
2021/12/23 03:00:40;;;;;;;35.33;22.27;;;0.50;94.90;;;;;;4992317;28;20114;-78
2021/12/23 03:03:06;;;;;;;39.60;23.93;;;0.50;95.50;;;;;;4979763;28;20026;-79
2021/12/23 03:05:31;;;;;;;40.27;23.37;;;0.50;95.80;;;;;;4996395;28;20080;-78
2021/12/23 03:07:59;;;;;;;40.77;23.57;;;0.40;95.80;;;;;;4964451;28;20409;-78
2021/12/23 03:10:25;;;;;;;39.90;23.23;;;0.30;95.60;;;;;;4980164;28;20053;-77
2021/12/23 03:12:51;;;;;;;39.40;23.43;;;0.30;95.40;;;;;;4996659;28;20471;-76
2021/12/23 03:15:17;;;;;;;40.53;24.00;;;0.20;95.20;;;;;;4979995;28;20035;-77
2021/12/23 03:17:43;;;;;;;37.63;23.27;;;0.20;95.70;;;;;;4979745;28;20448;-78
2021/12/23 03:20:09;;;;;;;37.70;23.50;;;0.10;95.10;;;;;;4996217;28;20030;-77
2021/12/23 03:22:35;;;;;;;40.83;24.33;;;0.10;95.40;;;;;;4994791;28;20057;-77
2021/12/23 03:25:00;;;;;;;37.40;23.27;;;0.00;95.40;;;;;;4997205;28;20038;-78
2021/12/23 03:27:26;;;;;;;39.60;24.03;;;0.00;96.10;;;;;;4995657;28;20121;-77
2021/12/23 03:29:54;;;;;;;37.73;23.93;;;0.10;96.60;;;;;;4995735;28;20019;-77
2021/12/23 03:32:20;;;;;;;38.03;23.80;;;0.10;96.60;;;;;;4995919;28;20046;-77
2021/12/23 03:34:45;;;;;;;39.53;23.33;;;0.10;96.90;;;;;;4996715;28;20073;-77
2021/12/23 03:37:11;;;;;;;44.70;24.00;;;0.10;97.00;;;;;;4979949;28;20054;-76
2021/12/23 03:39:37;;;;;;;38.10;24.00;;;0.20;97.60;;;;;;4997309;28;20439;-76
2021/12/23 03:42:03;;;;;;;41.97;26.20;;;0.40;97.90;;;;;;4979438;28;20026;-78
2021/12/23 03:44:28;;;;;;;45.20;26.07;;;0.40;97.30;;;;;;4980484;28;20034;-77
2021/12/23 03:46:54;;;;;;;44.63;25.13;;;0.50;97.10;;;;;;4996723;28;20406;-78
2021/12/23 03:49:20;;;;;;;44.20;25.67;;;0.50;97.30;;;;;;4979555;28;20027;-76
2021/12/23 03:51:45;;;;;;;40.90;26.23;;;0.70;98.30;;;;;;4963103;28;20031;-77
2021/12/23 03:54:11;;;;;;;42.63;25.20;;;0.80;98.10;;;;;;4978857;28;20039;-79
2021/12/23 03:56:37;;;;;;;41.73;25.47;;;0.80;97.60;;;;;;4962922;28;20045;-77
2021/12/23 03:59:03;;;;;;;43.90;25.07;;;0.90;98.60;;;;;;4962805;28;20451;-76
2021/12/23 04:01:30;;;;;;;42.20;25.60;;;1.10;98.70;;;;;;4978834;28;20038;-78
2021/12/23 04:03:56;;;;;;;42.13;26.13;;;1.10;98.30;;;;;;4978740;28;20030;-78
2021/12/23 04:06:22;;;;;;;42.00;25.57;;;0.90;96.70;;;;;;4995045;28;20022;-78
2021/12/23 04:08:49;;;;;;;41.00;25.50;;;0.70;96.20;;;;;;4996180;28;20034;-79
2021/12/23 04:11:16;;;;;;;44.37;26.77;;;0.60;96.60;;;;;;4996073;28;20026;-80
2021/12/23 04:13:41;;;;;;;45.20;26.90;;;0.50;97.30;;;;;;4993548;28;20030;-77
2021/12/23 04:16:07;;;;;;;47.07;27.93;;;0.60;98.40;;;;;;4978211;28;20376;-77
2021/12/23 04:18:33;;;;;;;48.47;29.03;;;0.80;99.00;;;;;;4994501;28;20463;-78
2021/12/23 04:20:59;;;;;;;52.93;31.17;;;1.00;98.90;;;;;;4994493;28;20101;-77
2021/12/23 04:23:28;;;;;;;49.83;30.10;;;0.90;98.20;;;;;;4994351;28;20035;-78
2021/12/23 04:25:55;;;;;;;50.90;30.43;;;0.90;97.70;;;;;;4994376;28;20029;-77
2021/12/23 04:28:22;;;;;;;47.17;27.73;;;0.70;96.40;;;;;;4995972;28;20455;-77
2021/12/23 04:30:48;;;;;;;44.03;27.30;;;0.40;96.10;;;;;;4995574;28;20137;-76
2021/12/23 04:33:14;;;;;;;48.73;27.33;;;0.30;96.20;;;;;;4994387;28;20106;-80
2021/12/23 04:35:40;;;;;;;48.77;27.50;;;0.10;96.10;;;;;;4977820;28;20066;-77
2021/12/23 04:38:07;;;;;;;47.87;27.27;;;-0.10;96.20;;;;;;4994192;28;20030;-77
2021/12/23 04:40:37;;;;;;;48.53;26.67;;;-0.20;96.30;;;;;;4978666;28;20053;-78
2021/12/23 04:43:05;;;;;;;46.10;26.33;;;-0.30;96.50;;;;;;4995987;28;20371;-78
2021/12/23 04:45:31;;;;;;;48.93;27.73;;;-0.30;97.20;;;;;;4994689;28;20430;-78
2021/12/23 04:47:58;;;;;;;45.63;26.20;;;-0.20;97.50;;;;;;4994370;28;20278;-78
2021/12/23 04:50:24;;;;;;;46.73;27.70;;;-0.10;97.40;;;;;;4979516;28;20150;-78
2021/12/23 04:52:51;;;;;;;45.07;25.73;;;-0.10;97.30;;;;;;4995229;28;20487;-78
2021/12/23 04:55:17;;;;;;;48.20;27.10;;;0.00;97.70;;;;;;4994115;28;20061;-82
2021/12/23 04:57:44;;;;;;;45.13;25.33;;;0.00;97.40;;;;;;4995298;28;20022;-78
2021/12/23 05:00:18;;;;;;;44.30;26.63;;;-0.20;96.90;;;;;;4993771;28;20030;-78
2021/12/23 05:02:44;;;;;;;45.63;27.07;;;-0.20;97.10;;;;;;4994138;28;20283;-78
2021/12/23 05:05:10;;;;;;;46.83;27.07;;;-0.20;97.40;;;;;;4977841;28;20031;-78
2021/12/23 05:07:36;;;;;;;45.10;26.17;;;-0.10;98.00;;;;;;4978040;28;20038;-79
2021/12/23 05:10:03;;;;;;;46.10;26.53;;;0.00;98.40;;;;;;4977369;28;20129;-79
2021/12/23 05:12:29;;;;;;;43.67;26.30;;;0.20;99.10;;;;;;4978332;28;20125;-80
2021/12/23 05:14:54;;;;;;;46.37;26.90;;;0.30;98.80;;;;;;4994013;28;20117;-77
2021/12/23 05:17:20;;;;;;;45.30;27.17;;;0.40;98.30;;;;;;4993575;28;20034;-81
2021/12/23 05:19:46;;;;;;;44.50;26.90;;;0.40;98.00;;;;;;4993528;28;20387;-79
2021/12/23 05:22:11;;;;;;;44.93;27.30;;;0.40;97.00;;;;;;4994688;28;20037;-77
2021/12/23 05:24:37;;;;;;;42.87;25.40;;;0.20;96.80;;;;;;4993160;28;20034;-78
2021/12/23 05:27:03;;;;;;;44.10;26.37;;;0.20;97.10;;;;;;4994092;28;20030;-77
2021/12/23 05:29:29;;;;;;;43.87;25.67;;;0.20;97.30;;;;;;4977923;28;20030;-77
2021/12/23 05:31:54;;;;;;;42.50;25.37;;;0.30;97.30;;;;;;4995048;28;20411;-78
2021/12/23 05:34:20;;;;;;;44.73;25.87;;;0.20;97.10;;;;;;4993924;28;20522;-80
2021/12/23 05:36:46;;;;;;;41.63;26.37;;;0.20;97.10;;;;;;4977227;28;20133;-78
2021/12/23 05:39:11;;;;;;;44.37;25.67;;;0.20;97.30;;;;;;4993061;28;20575;-76
2021/12/23 05:41:37;;;;;;;44.27;25.53;;;0.20;97.20;;;;;;4993443;28;20089;-78
2021/12/23 05:44:03;;;;;;;40.77;25.17;;;0.20;97.30;;;;;;4977749;28;20030;-76
2021/12/23 05:46:29;;;;;;;45.63;26.20;;;0.30;97.50;;;;;;4993312;28;20038;-77
2021/12/23 05:48:55;;;;;;;44.57;26.57;;;0.40;97.60;;;;;;4994106;28;20402;-79
2021/12/23 05:51:20;;;;;;;43.10;25.57;;;0.50;97.50;;;;;;4977071;28;20486;-80
2021/12/23 05:53:46;;;;;;;42.37;25.20;;;0.50;97.90;;;;;;4976631;28;20479;-76
2021/12/23 05:56:12;;;;;;;39.67;24.97;;;0.60;97.50;;;;;;4992908;28;20041;-77
2021/12/23 05:58:38;;;;;;;43.43;25.33;;;0.70;97.70;;;;;;4993679;28;20026;-77
2021/12/23 06:01:04;;;;;;;41.00;24.97;;;0.80;98.30;;;;;;4992814;28;20030;-77
2021/12/23 06:03:29;;;;;;;45.00;25.70;;;0.90;98.10;;;;;;4992534;28;20030;-77
2021/12/23 06:05:55;;;;;;;49.07;28.43;;;0.90;96.80;;;;;;4992486;28;20331;-77
2021/12/23 06:08:21;;;;;;;47.37;26.13;;;0.90;97.10;;;;;;4976710;28;20026;-77
2021/12/23 06:10:46;;;;;;;43.93;24.53;;;0.90;97.30;;;;;;4977077;28;20424;-77
2021/12/23 06:13:12;;;;;;;42.40;25.53;;;0.90;97.30;;;;;;4992260;28;20030;-78
2021/12/23 06:15:38;;;;;;;40.80;25.17;;;0.80;95.90;;;;;;4992411;28;20109;-77
2021/12/23 06:18:04;;;;;;;40.03;24.53;;;0.70;96.00;;;;;;4960236;28;20030;-78
2021/12/23 06:20:29;;;;;;;40.37;24.87;;;0.60;96.30;;;;;;4976244;28;20122;-77
2021/12/23 06:22:55;;;;;;;44.57;27.07;;;0.60;96.70;;;;;;4992446;28;20030;-75
2021/12/23 06:25:21;;;;;;;42.37;26.57;;;0.80;97.90;;;;;;4976453;28;20038;-77
2021/12/23 06:27:47;;;;;;;42.83;25.50;;;1.00;98.60;;;;;;4976215;28;20030;-78
2021/12/23 06:30:18;;;;;;;39.10;24.43;;;1.30;99.00;;;;;;4993974;28;20065;-78
2021/12/23 06:32:46;;;;;;;42.83;25.13;;;1.40;98.80;;;;;;4992899;28;20026;-78
2021/12/23 06:35:13;;;;;;;40.03;25.13;;;1.60;98.30;;;;;;4993456;28;20030;-78
2021/12/23 06:37:39;;;;;;;42.83;23.87;;;1.50;96.70;;;;;;4959775;28;20058;-78
2021/12/23 06:40:06;;;;;;;40.20;25.17;;;1.40;96.50;;;;;;4992299;28;20478;-78
2021/12/23 06:42:31;;;;;;;41.40;24.77;;;1.40;96.80;;;;;;4976062;28;20428;-79
2021/12/23 06:44:57;;;;;;;46.63;26.17;;;1.20;95.60;;;;;;4976070;28;20081;-77
2021/12/23 06:47:23;;;;;;;43.77;25.83;;;1.00;95.40;;;;;;4992842;28;20125;-79
2021/12/23 06:49:49;;;;;;;45.60;26.53;;;0.90;95.90;;;;;;4992533;28;20462;-78
2021/12/23 06:52:16;;;;;;;42.13;24.47;;;0.90;96.30;;;;;;4959974;28;20038;-78
2021/12/23 06:54:47;;;;;;;48.93;26.73;;;0.90;96.70;;;;;;4975568;28;20070;-78
2021/12/23 06:57:13;;;;;;;47.83;26.27;;;1.00;97.10;;;;;;4992937;28;20443;-78
2021/12/23 06:59:40;;;;;;;42.33;25.47;;;1.10;97.00;;;;;;4992555;28;20023;-78
2021/12/23 07:02:06;;;;;;;45.33;26.20;;;1.10;96.90;;;;;;4991834;28;20022;-77
2021/12/23 07:04:34;;;;;;;48.67;26.00;;;1.20;97.90;;;;;;4991953;28;20026;-78
2021/12/23 07:07:10;;;;;;;44.27;26.33;;;1.30;97.00;;;;;;4992362;28;20030;-77
2021/12/23 07:09:42;;;;;;;45.97;26.30;;;1.20;95.90;;;;;;4993992;28;20034;-77
2021/12/23 07:12:10;;;;;;;46.92;26.58;;;1.00;95.30;;;;;;4976315;28;20046;-78
2021/12/23 07:14:37;;;;;;;49.67;27.03;;;0.90;95.60;;;;;;4993436;28;20054;-78
2021/12/23 07:17:05;;;;;;;45.27;26.90;;;0.80;95.70;;;;;;4994375;28;20027;-78
2021/12/23 07:19:30;;;;;;;49.07;27.73;;;0.70;96.20;;;;;;4992798;28;20049;-81
2021/12/23 07:21:56;;;;;;;48.30;28.13;;;0.70;96.50;;;;;;4991909;28;20412;-78
2021/12/23 07:24:22;;;;;;;45.70;27.20;;;0.80;96.80;;;;;;4993647;28;20041;-79
2021/12/23 07:26:48;;;;;;;45.93;26.87;;;0.80;96.90;;;;;;4975981;28;20443;-78
2021/12/23 07:29:14;;;;;;;43.30;25.33;;;0.90;97.00;;;;;;4992941;28;20478;-79
2021/12/23 07:31:40;;;;;;;46.70;27.27;;;1.00;97.60;;;;;;4991841;28;20057;-78
2021/12/23 07:34:05;;;;;;;47.20;27.50;;;1.20;98.20;;;;;;4993124;28;20066;-80
2021/12/23 07:36:31;;;;;;;44.93;27.40;;;1.40;96.90;;;;;;4991619;28;20049;-81
2021/12/23 07:38:57;;;;;;;44.33;26.60;;;1.40;96.90;;;;;;4975405;28;20031;-80
2021/12/23 07:41:26;;;;;;;40.47;25.47;;;1.50;97.30;;;;;;4991731;28;20041;-79
2021/12/23 07:43:59;;;;;;;44.80;26.53;;;1.60;97.40;;;;;;4975657;28;20023;-78
2021/12/23 07:46:26;;;;;;;44.23;25.77;;;1.60;96.80;;;;;;4977046;28;20034;-79
2021/12/23 07:48:52;;;;;;;43.17;25.80;;;1.70;96.50;;;;;;4995457;28;20033;-80
2021/12/23 07:51:18;;;;;;;45.07;26.93;;;1.60;95.60;;;;;;4997598;28;20042;-80
2021/12/23 07:53:44;;;;;;;41.97;25.57;;;1.60;95.00;;;;;;4997564;28;20038;-78
2021/12/23 07:56:10;;;;;;;41.90;26.47;;;1.50;95.00;;;;;;4996585;28;20456;-79
2021/12/23 07:58:35;;;;;;;44.87;26.50;;;1.50;95.50;;;;;;4964183;28;20034;-79
2021/12/23 08:01:01;;;;;;;47.30;26.87;;;1.60;96.20;;;;;;4981329;28;20027;-79
2021/12/23 08:03:27;;;;;;;44.47;26.37;;;1.70;95.30;;;;;;4964661;28;20475;-78
2021/12/23 08:05:52;;;;;;;50.13;27.83;;;1.70;95.80;;;;;;4996514;28;20474;-78
2021/12/23 08:08:19;;;;;;;42.57;25.57;;;1.70;95.40;;;;;;4979715;28;20113;-78
2021/12/23 08:10:44;;;;;;;43.63;27.00;;;1.80;95.20;;;;;;4979589;28;20057;-77
2021/12/23 08:13:10;;;;;;;47.73;28.23;;;1.90;95.90;;;;;;4980176;28;20471;-78
2021/12/23 08:15:36;;;;;;;45.40;27.83;;;2.00;96.60;;;;;;4996032;28;20462;-82
2021/12/23 08:18:02;;;;;;;46.13;27.37;;;2.10;96.10;;;;;;4979258;28;20041;-78
2021/12/23 08:20:29;;;;;;;44.70;28.30;;;2.10;95.30;;;;;;4995556;28;20466;-78
2021/12/23 08:22:55;;;;;;;47.30;28.77;;;2.10;95.10;;;;;;4995647;28;20101;-78
2021/12/23 08:25:22;;;;;;;44.70;27.80;;;2.10;95.50;;;;;;4995606;28;20525;-78
2021/12/23 08:27:49;;;;;;;45.30;27.73;;;2.20;94.90;;;;;;4996011;28;20022;-77
2021/12/23 08:30:18;;;;;;;50.20;29.53;;;2.20;94.60;;;;;;4979546;28;20134;-77
2021/12/23 08:32:44;;;;;;;45.73;28.03;;;2.30;95.70;;;;;;4995864;28;20034;-78
2021/12/23 08:35:11;;;;;;;43.40;27.93;;;2.40;94.70;;;;;;4979311;28;20467;-78
2021/12/23 08:37:38;;;;;;;57.50;32.60;;;2.40;95.30;;;;;;4979219;28;20065;-81
2021/12/23 08:40:06;;;;;;;50.57;29.67;;;2.50;96.10;;;;;;4996531;28;20101;-78
2021/12/23 08:42:31;;;;;;;47.43;27.73;;;2.60;95.90;;;;;;4980021;28;20113;-78
2021/12/23 08:44:57;;;;;;;44.57;28.17;;;2.60;93.80;;;;;;4979769;28;20062;-78
2021/12/23 08:47:23;;;;;;;55.50;32.30;;;2.50;93.90;;;;;;4996562;28;20376;-78
2021/12/23 08:49:49;;;;;;;56.57;35.13;;;2.40;94.10;;;;;;4996229;28;20065;-78
2021/12/23 08:52:15;;;;;;;52.93;32.27;;;2.50;96.20;;;;;;4981919;28;20395;-78
2021/12/23 08:54:42;;;;;;;62.70;35.53;;;2.60;95.80;;;;;;4997129;28;20030;-78
2021/12/23 08:57:08;;;;;;;55.93;34.63;;;2.80;97.10;;;;;;4981879;28;20034;-79
2021/12/23 08:59:34;;;;;;;54.00;32.57;;;3.10;97.50;;;;;;4997397;28;20022;-79
2021/12/23 09:02:01;;;;;;;57.67;32.77;;;3.20;96.70;;;;;;4982336;28;20027;-79
2021/12/23 09:04:27;;;;;;;51.70;32.87;;;3.30;96.90;;;;;;4999624;28;20110;-77
2021/12/23 09:06:52;;;;;;;48.87;28.70;;;3.40;96.40;;;;;;5002020;28;20034;-77
2021/12/23 09:09:19;;;;;;;45.53;28.37;;;3.40;95.10;;;;;;5000249;28;20022;-78
2021/12/23 09:11:45;;;;;;;48.33;30.07;;;3.30;94.20;;;;;;4967966;28;20031;-78
2021/12/23 09:14:11;;;;;;;47.13;28.93;;;3.30;94.20;;;;;;5002698;28;20039;-77
2021/12/23 09:16:38;;;;;;;44.17;28.13;;;3.30;93.70;;;;;;5000778;28;20041;-79
2021/12/23 09:19:06;;;;;;;47.27;30.10;;;3.20;92.50;;;;;;4999443;28;20043;-78
2021/12/23 09:21:32;;;;;;;45.07;26.97;;;3.20;92.80;;;;;;4999134;28;20086;-78
2021/12/23 09:23:58;;;;;;;42.80;27.00;;;3.10;92.10;;;;;;4979076;28;20030;-78
2021/12/23 09:26:24;;;;;;;44.13;27.53;;;3.10;92.00;;;;;;4995988;28;20026;-78
2021/12/23 09:34:00;;;;;;;48.23;27.43;;;3.10;92.80;;;;;;4988550;28;20106;-79
2021/12/23 09:36:26;;;;;;;42.30;28.17;;;3.20;90.50;;;;;;4987738;28;20074;-78
2021/12/23 09:38:52;;;;;;;46.47;28.57;;;3.40;92.10;;;;;;5003030;28;20095;-82
2021/12/23 09:41:20;;;;;;;42.70;27.50;;;3.50;91.40;;;;;;4996115;28;20447;-79
2021/12/23 09:43:48;;;;;;;46.47;28.77;;;3.50;90.60;;;;;;4994820;28;20037;-80
2021/12/23 09:46:17;;;;;;;46.33;28.50;;;3.50;91.20;;;;;;4979165;28;20224;-78
2021/12/23 09:48:45;;;;;;;41.37;26.97;;;3.60;90.50;;;;;;4994554;28;20049;-82
2021/12/23 09:51:13;;;;;;;43.93;25.93;;;3.70;90.50;;;;;;4994609;28;20423;-78
2021/12/23 09:53:42;;;;;;;46.57;29.30;;;3.80;86.90;;;;;;4993780;28;20061;-79
2021/12/23 09:56:09;;;;;;;44.67;28.23;;;3.80;90.10;;;;;;4978283;28;20034;-78
2021/12/23 09:58:35;;;;;;;45.90;29.43;;;3.90;90.50;;;;;;4993810;28;20343;-77
2021/12/23 10:01:03;;;;;;;45.30;28.17;;;4.00;90.40;;;;;;4961838;28;20038;-78
2021/12/23 10:03:30;;;;;;;41.70;28.03;;;4.20;90.80;;;;;;4961775;28;20061;-77
2021/12/23 10:05:57;;;;;;;46.83;27.17;;;4.30;90.60;;;;;;4993671;28;20026;-79
2021/12/23 10:08:23;;;;;;;42.37;26.33;;;4.30;89.70;;;;;;4977397;28;20027;-78
2021/12/23 10:10:58;;;;;;;43.80;26.13;;;4.20;86.30;;;;;;4992686;28;20029;-77
2021/12/23 10:38:14;;;;;;;42.30;24.43;;;4.20;85.90;;;;;;4994422;28;20111;-79
2021/12/23 10:40:43;;;;;;;40.67;22.97;;;4.20;86.10;;;;;;4992592;28;20026;-78
2021/12/23 10:43:19;;;;;;;42.07;24.30;;;4.20;86.80;;;;;;4993992;28;20121;-78
2021/12/23 10:45:55;;;;;;;41.40;23.57;;;4.30;88.70;;;;;;4992492;28;20501;-78
2021/12/23 10:48:24;;;;;;;38.40;23.23;;;4.40;88.50;;;;;;4977859;28;20542;-78
2021/12/23 10:50:56;;;;;;;39.50;23.30;;;4.50;88.30;;;;;;4992177;28;20026;-82
2021/12/23 10:59:14;;;;;;;40.83;22.97;;;4.40;86.00;;;;;;4993702;28;20041;-83
2021/12/23 11:02:17;;;;;;;40.23;23.80;;;4.50;87.00;;;;;;4992956;28;20093;-82
2021/12/23 11:05:00;;;;;;;39.50;23.30;;;4.50;89.00;;;;;;4993078;28;20034;-81
2021/12/23 11:07:47;;;;;;;38.67;23.50;;;4.70;90.20;;;;;;4993212;28;20038;-82
2021/12/23 11:43:56;;;;;;;38.63;22.67;;;5.60;87.30;;;;;;4997725;28;20101;-82
2021/12/23 11:46:38;;;;;;;36.50;21.43;;;5.60;88.00;;;;;;4997451;28;20498;-82
2021/12/23 11:49:08;;;;;;;37.83;22.10;;;5.60;88.20;;;;;;4998407;28;20026;-82
2021/12/23 11:51:45;;;;;;;37.80;21.23;;;5.60;88.70;;;;;;4981328;28;20034;-80
2021/12/23 11:54:15;;;;;;;32.37;19.67;;;5.70;89.60;;;;;;5003624;28;20038;-80
2021/12/23 11:56:51;;;;;;;36.13;22.30;;;5.80;90.30;;;;;;5006346;28;20027;-80
2021/12/23 11:59:18;;;;;;;39.77;22.43;;;5.90;90.00;;;;;;5001740;28;20064;-78
2021/12/23 12:02:17;;;;;;;34.20;21.23;;;6.00;90.30;;;;;;4986838;28;20031;-80
2021/12/23 12:04:44;;;;;;;41.93;21.00;;;6.20;90.40;;;;;;4999757;28;20096;-81
2021/12/23 12:07:21;;;;;;;36.07;20.97;;;6.30;89.60;;;;;;4980813;28;20118;-81
2021/12/23 12:10:04;;;;;;;37.17;20.80;;;6.30;88.80;;;;;;4996838;28;20034;-81
2021/12/23 12:12:31;;;;;;;;;;;6.40;88.60;;;;;;4998149;28;20054;-81
2021/12/23 12:14:57;;;;;;;;;;;6.50;88.50;;;;;;4997557;28;20450;-81
2021/12/23 12:17:23;;;;;;;;;;;6.60;90.00;;;;;;4998069;28;19906;-80
2021/12/23 12:20:01;;;;;;;;;;;6.80;89.40;;;;;;4997290;28;20342;-79
2021/12/23 12:22:44;;;;;;;;;;;6.80;88.50;;;;;;4997208;28;19996;-81
2021/12/23 12:25:11;;;;;;;;;;;6.90;87.80;;;;;;4996337;28;19906;-82
2021/12/23 12:27:38;;;;;;;;;;;7.00;88.00;;;;;;4996611;28;19909;-81
2021/12/23 12:30:07;;;;;;;;;;;7.10;89.10;;;;;;4980323;28;19941;-81
2021/12/23 12:32:34;;;;;;;;;;;7.20;89.30;;;;;;4996807;28;19910;-79
2021/12/23 12:34:59;;;;;;;;;;;7.20;89.70;;;;;;4995613;28;19997;-81
2021/12/23 12:37:39;;;;;;;;;;;7.20;88.90;;;;;;4980728;28;19929;-82
2021/12/23 12:40:05;;;;;;;;;;;7.20;90.00;;;;;;4998860;28;20362;-81
2021/12/23 12:42:34;;;;;;;;;;;7.30;90.00;;;;;;4982602;28;20016;-81
2021/12/23 12:45:08;;;;;;;;;;;7.30;90.30;;;;;;4995549;28;19906;-81
2021/12/23 12:47:37;;;;;;;;;;;7.40;90.10;;;;;;4996450;28;19906;-81
2021/12/23 12:50:09;;;;;;;;;;;7.30;90.30;;;;;;4982493;28;19909;-82
2021/12/23 12:52:36;;;;;;;;;;;7.50;90.90;;;;;;4998470;28;20362;-81
2021/12/23 12:55:08;;;;;;;;;;;7.50;90.20;;;;;;4998299;28;19995;-81
2021/12/23 12:57:37;;;;;;;;;;;7.50;90.50;;;;;;4995065;28;19992;-79
2021/12/23 13:00:22;;;;;;;;;;;7.40;90.20;;;;;;4995083;28;19906;-81
2021/12/23 13:03:01;;;;;;;;;;;7.40;90.80;;;;;;4995362;28;19928;-82
2021/12/23 13:05:28;;;;;;;;;;;7.40;91.20;;;;;;4995182;28;19992;-82
2021/12/23 13:07:54;;;;;;;;;;;7.40;90.80;;;;;;4994479;28;19909;-81
2021/12/23 13:10:27;;;;;;;;;;;7.40;91.20;;;;;;4995694;28;19996;-80
2021/12/23 13:12:54;;;;;;;;;;;7.30;91.30;;;;;;4994640;28;19906;-81
2021/12/23 13:15:25;;;;;;;;;;;7.30;92.20;;;;;;4994558;28;19921;-80
2021/12/23 13:18:00;;;;;;;;;;;7.40;91.90;;;;;;4995737;28;19909;-82
2021/12/23 13:20:35;;;;;;;;;;;7.40;91.30;;;;;;4995330;28;19929;-81
2021/12/23 13:23:06;;;;;;;;;;;7.40;91.70;;;;;;4995605;28;19905;-80
2021/12/23 13:25:32;;;;;;;;;;;7.40;92.00;;;;;;4994501;28;19906;-81
2021/12/23 13:28:00;;;;;;;;;;;7.40;92.20;;;;;;4978247;28;19909;-82
2021/12/23 13:30:25;;;;;;;;;;;7.40;92.60;;;;;;4994525;28;19905;-81
2021/12/23 13:33:01;;;;;;;;;;;7.50;93.20;;;;;;4978406;28;20347;-81
2021/12/23 13:35:27;;;;;;;;;;;7.50;92.90;;;;;;4997237;28;19968;-82
2021/12/23 13:37:53;;;;;;;;;;;7.60;93.00;;;;;;4994699;28;19917;-82
2021/12/23 13:40:26;;;;;;;;;;;7.70;93.40;;;;;;4993976;28;19917;-81
2021/12/23 13:42:52;;;;;;;;;;;7.70;93.10;;;;;;4994384;28;19906;-82
2021/12/23 13:45:19;;;;;;;;;;;7.70;93.60;;;;;;4993579;28;19909;-81
2021/12/23 13:47:45;;;;;;;;;;;7.60;93.50;;;;;;4993784;28;19985;-81
2021/12/23 13:50:11;;;;;;;;;;;7.60;93.70;;;;;;4994884;28;20004;-81
2021/12/23 13:52:42;;;;;;;;;;;7.50;93.50;;;;;;4976944;28;19909;-81
2021/12/23 13:55:08;;;;;;;;;;;7.60;93.90;;;;;;4993754;28;19918;-80
2021/12/23 13:57:35;;;;;;;;;;;7.50;94.00;;;;;;4995121;28;19913;-81
2021/12/23 14:00:02;;;;;;;;;;;7.50;93.80;;;;;;4994727;28;19953;-81
2021/12/23 14:02:28;;;;;;;;;;;7.50;94.30;;;;;;4994418;28;19906;-82
2021/12/23 14:04:58;;;;;;;;;;;7.50;94.40;;;;;;4995600;28;19912;-81
2021/12/23 14:07:32;;;;;;;;;;;7.50;94.60;;;;;;4994774;28;20277;-81
2021/12/23 14:09:59;;;;;;;;;;;7.50;94.20;;;;;;4994086;28;19937;-81
2021/12/23 14:12:43;;;;;;;;;;;7.60;94.50;;;;;;4994897;28;20305;-80
2021/12/23 14:15:21;;;;;;;;;;;7.50;94.20;;;;;;4995086;28;19920;-80